sensor_id;sensor_type;location;lat;lon;timestamp;temperature;humidity
47765;DHT22;33529;49.242;8.670;2023-09-19T00:00:58;16.60;99.90
47765;DHT22;33529;49.242;8.670;2023-09-19T00:03:25;16.60;99.90
47765;DHT22;33529;49.242;8.670;2023-09-19T00:05:52;16.50;99.90
47765;DHT22;33529;49.242;8.670;2023-09-19T00:08:19;16.60;99.90
47765;DHT22;33529;49.242;8.670;2023-09-19T00:10:50;16.50;99.90
47765;DHT22;33529;49.242;8.670;2023-09-19T00:13:17;16.60;99.90
47765;DHT22;33529;49.242;8.670;2023-09-19T00:15:47;16.60;99.90
47765;DHT22;33529;49.242;8.670;2023-09-19T00:18:19;16.60;99.90
47765;DHT22;33529;49.242;8.670;2023-09-19T00:20:49;16.60;99.90
47765;DHT22;33529;49.242;8.670;2023-09-19T00:23:18;16.60;99.90
47765;DHT22;33529;49.242;8.670;2023-09-19T00:25:46;16.70;99.90
47765;DHT22;33529;49.242;8.670;2023-09-19T00:28:13;16.70;99.90
47765;DHT22;33529;49.242;8.670;2023-09-19T00:30:43;16.60;99.90
47765;DHT22;33529;49.242;8.670;2023-09-19T00:33:11;16.50;99.90
47765;DHT22;33529;49.242;8.670;2023-09-19T00:38:14;16.50;99.90
47765;DHT22;33529;49.242;8.670;2023-09-19T00:40:47;16.60;99.90
47765;DHT22;33529;49.242;8.670;2023-09-19T00:43:14;16.50;99.90
47765;DHT22;33529;49.242;8.670;2023-09-19T00:45:46;16.50;99.90
47765;DHT22;33529;49.242;8.670;2023-09-19T00:48:19;16.50;99.90
47765;DHT22;33529;49.242;8.670;2023-09-19T00:50:47;16.50;99.90
47765;DHT22;33529;49.242;8.670;2023-09-19T00:53:18;16.50;99.90
47765;DHT22;33529;49.242;8.670;2023-09-19T00:55:47;16.50;99.90
47765;DHT22;33529;49.242;8.670;2023-09-19T00:58:17;16.40;99.90
47765;DHT22;33529;49.242;8.670;2023-09-19T01:00:45;16.40;99.90
47765;DHT22;33529;49.242;8.670;2023-09-19T01:03:13;16.40;99.90
47765;DHT22;33529;49.242;8.670;2023-09-19T01:05:40;16.40;99.90
47765;DHT22;33529;49.242;8.670;2023-09-19T01:08:09;16.40;99.90
47765;DHT22;33529;49.242;8.670;2023-09-19T01:10:46;16.40;99.90
47765;DHT22;33529;49.242;8.670;2023-09-19T01:19:33;16.30;99.90
47765;DHT22;33529;49.242;8.670;2023-09-19T01:22:26;16.30;99.90
47765;DHT22;33529;49.242;8.670;2023-09-19T01:25:36;16.40;99.90
47765;DHT22;33529;49.242;8.670;2023-09-19T01:28:30;16.50;99.90
47765;DHT22;33529;49.242;8.670;2023-09-19T01:31:04;16.50;99.90
47765;DHT22;33529;49.242;8.670;2023-09-19T01:33:55;16.40;99.90
47765;DHT22;33529;49.242;8.670;2023-09-19T01:36:23;16.40;99.90
47765;DHT22;33529;49.242;8.670;2023-09-19T01:38:52;16.40;99.90
47765;DHT22;33529;49.242;8.670;2023-09-19T01:41:26;16.40;99.90
47765;DHT22;33529;49.242;8.670;2023-09-19T01:43:54;16.30;99.90
47765;DHT22;33529;49.242;8.670;2023-09-19T01:46:25;16.30;99.90
47765;DHT22;33529;49.242;8.670;2023-09-19T01:49:06;16.30;99.90
47765;DHT22;33529;49.242;8.670;2023-09-19T01:52:02;16.20;99.90
47765;DHT22;33529;49.242;8.670;2023-09-19T01:54:33;16.30;99.90
47765;DHT22;33529;49.242;8.670;2023-09-19T01:57:28;16.30;99.90
47765;DHT22;33529;49.242;8.670;2023-09-19T02:00:03;16.40;99.90
47765;DHT22;33529;49.242;8.670;2023-09-19T02:02:43;16.40;99.90
47765;DHT22;33529;49.242;8.670;2023-09-19T02:05:11;16.40;99.90
47765;DHT22;33529;49.242;8.670;2023-09-19T02:07:39;16.40;99.90
47765;DHT22;33529;49.242;8.670;2023-09-19T02:10:07;16.40;99.90
47765;DHT22;33529;49.242;8.670;2023-09-19T02:12:36;16.50;99.90
47765;DHT22;33529;49.242;8.670;2023-09-19T02:15:05;16.50;99.90
47765;DHT22;33529;49.242;8.670;2023-09-19T02:17:34;16.50;99.90
47765;DHT22;33529;49.242;8.670;2023-09-19T02:20:01;16.50;99.90
47765;DHT22;33529;49.242;8.670;2023-09-19T02:22:30;16.50;99.90
47765;DHT22;33529;49.242;8.670;2023-09-19T02:24:57;16.60;99.90
47765;DHT22;33529;49.242;8.670;2023-09-19T02:27:27;16.50;99.90
47765;DHT22;33529;49.242;8.670;2023-09-19T02:29:54;16.50;99.90
47765;DHT22;33529;49.242;8.670;2023-09-19T02:32:21;16.50;99.90
47765;DHT22;33529;49.242;8.670;2023-09-19T02:34:48;16.50;99.90
47765;DHT22;33529;49.242;8.670;2023-09-19T02:37:15;16.60;99.90
47765;DHT22;33529;49.242;8.670;2023-09-19T02:39:43;16.70;99.90
47765;DHT22;33529;49.242;8.670;2023-09-19T02:42:11;16.70;99.90
47765;DHT22;33529;49.242;8.670;2023-09-19T02:44:38;16.60;99.90
47765;DHT22;33529;49.242;8.670;2023-09-19T02:47:05;16.70;99.90
47765;DHT22;33529;49.242;8.670;2023-09-19T02:49:32;16.70;99.90
47765;DHT22;33529;49.242;8.670;2023-09-19T02:51:59;16.80;99.90
47765;DHT22;33529;49.242;8.670;2023-09-19T02:54:26;16.80;99.90
47765;DHT22;33529;49.242;8.670;2023-09-19T02:56:53;16.80;99.90
47765;DHT22;33529;49.242;8.670;2023-09-19T02:59:20;16.80;99.90
47765;DHT22;33529;49.242;8.670;2023-09-19T03:01:47;16.70;99.90
47765;DHT22;33529;49.242;8.670;2023-09-19T03:04:15;16.60;99.90
47765;DHT22;33529;49.242;8.670;2023-09-19T03:06:47;16.70;99.90
47765;DHT22;33529;49.242;8.670;2023-09-19T03:09:15;16.60;99.90
47765;DHT22;33529;49.242;8.670;2023-09-19T03:11:42;16.60;99.90
47765;DHT22;33529;49.242;8.670;2023-09-19T03:14:10;16.60;99.90
47765;DHT22;33529;49.242;8.670;2023-09-19T03:16:39;16.70;99.90
47765;DHT22;33529;49.242;8.670;2023-09-19T03:19:06;16.50;99.90
47765;DHT22;33529;49.242;8.670;2023-09-19T03:21:33;16.50;99.90
47765;DHT22;33529;49.242;8.670;2023-09-19T03:24:01;16.40;99.90
47765;DHT22;33529;49.242;8.670;2023-09-19T03:26:29;16.40;99.90
47765;DHT22;33529;49.242;8.670;2023-09-19T03:28:57;16.40;99.90
47765;DHT22;33529;49.242;8.670;2023-09-19T03:31:25;16.30;99.90
47765;DHT22;33529;49.242;8.670;2023-09-19T03:33:52;16.30;99.90
47765;DHT22;33529;49.242;8.670;2023-09-19T03:36:18;16.20;99.90
47765;DHT22;33529;49.242;8.670;2023-09-19T03:38:45;16.20;99.90
47765;DHT22;33529;49.242;8.670;2023-09-19T03:41:12;16.30;99.90
47765;DHT22;33529;49.242;8.670;2023-09-19T03:43:41;16.20;99.90
47765;DHT22;33529;49.242;8.670;2023-09-19T03:46:09;16.10;99.90
47765;DHT22;33529;49.242;8.670;2023-09-19T03:48:38;16.10;99.90
47765;DHT22;33529;49.242;8.670;2023-09-19T03:51:05;16.20;99.90
47765;DHT22;33529;49.242;8.670;2023-09-19T03:53:32;16.20;99.90
47765;DHT22;33529;49.242;8.670;2023-09-19T03:55:59;16.20;99.90
47765;DHT22;33529;49.242;8.670;2023-09-19T03:58:28;16.20;99.90
47765;DHT22;33529;49.242;8.670;2023-09-19T04:00:55;16.20;99.90
47765;DHT22;33529;49.242;8.670;2023-09-19T04:03:23;16.30;99.90
47765;DHT22;33529;49.242;8.670;2023-09-19T04:05:51;16.20;99.90
47765;DHT22;33529;49.242;8.670;2023-09-19T04:08:18;16.30;99.90
47765;DHT22;33529;49.242;8.670;2023-09-19T04:10:44;16.30;99.90
47765;DHT22;33529;49.242;8.670;2023-09-19T04:13:12;16.30;99.90
47765;DHT22;33529;49.242;8.670;2023-09-19T04:15:39;16.30;99.90
47765;DHT22;33529;49.242;8.670;2023-09-19T04:18:07;16.20;99.90
47765;DHT22;33529;49.242;8.670;2023-09-19T04:20:34;16.20;99.90
47765;DHT22;33529;49.242;8.670;2023-09-19T04:23:01;16.20;99.90
47765;DHT22;33529;49.242;8.670;2023-09-19T04:25:29;16.00;99.90
47765;DHT22;33529;49.242;8.670;2023-09-19T04:27:56;16.10;99.90
47765;DHT22;33529;49.242;8.670;2023-09-19T04:30:22;16.00;99.90
47765;DHT22;33529;49.242;8.670;2023-09-19T04:32:49;16.00;99.90
47765;DHT22;33529;49.242;8.670;2023-09-19T04:35:18;16.00;99.90
47765;DHT22;33529;49.242;8.670;2023-09-19T04:37:45;15.90;99.90
47765;DHT22;33529;49.242;8.670;2023-09-19T04:40:11;15.90;99.90
47765;DHT22;33529;49.242;8.670;2023-09-19T04:42:40;15.90;99.90
47765;DHT22;33529;49.242;8.670;2023-09-19T04:45:07;15.80;99.90
47765;DHT22;33529;49.242;8.670;2023-09-19T04:47:37;15.80;99.90
47765;DHT22;33529;49.242;8.670;2023-09-19T04:50:09;15.80;99.90
47765;DHT22;33529;49.242;8.670;2023-09-19T04:52:41;15.80;99.90
47765;DHT22;33529;49.242;8.670;2023-09-19T04:55:16;15.80;99.90
47765;DHT22;33529;49.242;8.670;2023-09-19T04:57:44;15.80;99.90
47765;DHT22;33529;49.242;8.670;2023-09-19T05:00:13;15.80;99.90
47765;DHT22;33529;49.242;8.670;2023-09-19T05:02:41;15.70;99.90
47765;DHT22;33529;49.242;8.670;2023-09-19T05:05:10;15.70;99.90
47765;DHT22;33529;49.242;8.670;2023-09-19T05:07:41;15.70;99.90
47765;DHT22;33529;49.242;8.670;2023-09-19T05:10:09;15.70;99.90
47765;DHT22;33529;49.242;8.670;2023-09-19T05:12:37;15.60;99.90
47765;DHT22;33529;49.242;8.670;2023-09-19T05:15:05;15.70;99.90
47765;DHT22;33529;49.242;8.670;2023-09-19T05:17:33;15.70;99.90
47765;DHT22;33529;49.242;8.670;2023-09-19T05:20:01;15.70;99.90
47765;DHT22;33529;49.242;8.670;2023-09-19T05:23:02;15.70;99.90
47765;DHT22;33529;49.242;8.670;2023-09-19T05:25:31;15.70;99.90
47765;DHT22;33529;49.242;8.670;2023-09-19T05:28:00;15.70;99.90
47765;DHT22;33529;49.242;8.670;2023-09-19T05:30:31;15.70;99.90
47765;DHT22;33529;49.242;8.670;2023-09-19T05:32:58;15.80;99.90
47765;DHT22;33529;49.242;8.670;2023-09-19T05:35:25;15.80;99.90
47765;DHT22;33529;49.242;8.670;2023-09-19T05:37:56;15.90;99.90
47765;DHT22;33529;49.242;8.670;2023-09-19T05:40:24;15.90;99.90
47765;DHT22;33529;49.242;8.670;2023-09-19T05:42:51;16.00;99.90
47765;DHT22;33529;49.242;8.670;2023-09-19T05:45:19;15.90;99.90
47765;DHT22;33529;49.242;8.670;2023-09-19T05:47:49;16.00;99.90
47765;DHT22;33529;49.242;8.670;2023-09-19T05:50:20;16.10;99.90
47765;DHT22;33529;49.242;8.670;2023-09-19T05:52:53;16.20;99.90
47765;DHT22;33529;49.242;8.670;2023-09-19T05:55:20;16.20;99.90
47765;DHT22;33529;49.242;8.670;2023-09-19T05:57:51;16.20;99.90
47765;DHT22;33529;49.242;8.670;2023-09-19T06:00:23;16.30;99.90
47765;DHT22;33529;49.242;8.670;2023-09-19T06:02:54;16.30;99.90
47765;DHT22;33529;49.242;8.670;2023-09-19T06:05:22;16.40;99.90
47765;DHT22;33529;49.242;8.670;2023-09-19T06:07:49;16.30;99.90
47765;DHT22;33529;49.242;8.670;2023-09-19T06:10:17;16.30;99.90
47765;DHT22;33529;49.242;8.670;2023-09-19T06:12:44;16.30;99.90
47765;DHT22;33529;49.242;8.670;2023-09-19T06:15:13;16.30;99.90
47765;DHT22;33529;49.242;8.670;2023-09-19T06:17:49;16.30;99.90
47765;DHT22;33529;49.242;8.670;2023-09-19T06:20:17;16.50;99.90
47765;DHT22;33529;49.242;8.670;2023-09-19T06:22:47;16.50;99.90
47765;DHT22;33529;49.242;8.670;2023-09-19T06:25:15;16.50;99.90
47765;DHT22;33529;49.242;8.670;2023-09-19T06:27:50;16.50;99.90
47765;DHT22;33529;49.242;8.670;2023-09-19T06:30:23;16.60;99.90
47765;DHT22;33529;49.242;8.670;2023-09-19T06:32:57;16.70;99.90
47765;DHT22;33529;49.242;8.670;2023-09-19T06:35:24;16.70;99.90
47765;DHT22;33529;49.242;8.670;2023-09-19T06:37:52;16.80;99.90
47765;DHT22;33529;49.242;8.670;2023-09-19T06:40:21;16.80;99.90
47765;DHT22;33529;49.242;8.670;2023-09-19T06:42:50;16.90;99.90
47765;DHT22;33529;49.242;8.670;2023-09-19T06:45:18;16.80;99.90
47765;DHT22;33529;49.242;8.670;2023-09-19T06:47:46;16.80;99.90
47765;DHT22;33529;49.242;8.670;2023-09-19T06:50:20;16.80;99.90
47765;DHT22;33529;49.242;8.670;2023-09-19T06:52:50;16.90;99.90
47765;DHT22;33529;49.242;8.670;2023-09-19T06:55:19;16.90;99.90
47765;DHT22;33529;49.242;8.670;2023-09-19T06:57:47;17.00;99.90
47765;DHT22;33529;49.242;8.670;2023-09-19T07:00:15;17.00;99.90
47765;DHT22;33529;49.242;8.670;2023-09-19T07:02:42;17.10;99.90
47765;DHT22;33529;49.242;8.670;2023-09-19T07:05:09;17.10;99.90
47765;DHT22;33529;49.242;8.670;2023-09-19T07:07:36;17.10;99.90
47765;DHT22;33529;49.242;8.670;2023-09-19T07:10:04;17.20;99.90
47765;DHT22;33529;49.242;8.670;2023-09-19T07:12:37;17.30;99.90
47765;DHT22;33529;49.242;8.670;2023-09-19T07:15:05;17.40;99.90
47765;DHT22;33529;49.242;8.670;2023-09-19T07:17:32;17.30;99.90
47765;DHT22;33529;49.242;8.670;2023-09-19T07:20:00;17.30;99.90
47765;DHT22;33529;49.242;8.670;2023-09-19T07:22:27;17.30;99.90
47765;DHT22;33529;49.242;8.670;2023-09-19T07:24:54;17.30;99.90
47765;DHT22;33529;49.242;8.670;2023-09-19T07:27:21;17.30;99.90
47765;DHT22;33529;49.242;8.670;2023-09-19T07:29:48;17.30;99.90
47765;DHT22;33529;49.242;8.670;2023-09-19T07:32:19;17.40;99.90
47765;DHT22;33529;49.242;8.670;2023-09-19T07:34:46;17.40;99.90
47765;DHT22;33529;49.242;8.670;2023-09-19T07:37:13;17.50;99.90
47765;DHT22;33529;49.242;8.670;2023-09-19T07:39:43;17.60;99.90
47765;DHT22;33529;49.242;8.670;2023-09-19T07:42:11;17.70;99.90
47765;DHT22;33529;49.242;8.670;2023-09-19T07:44:44;17.70;99.90
47765;DHT22;33529;49.242;8.670;2023-09-19T07:47:17;17.70;99.90
47765;DHT22;33529;49.242;8.670;2023-09-19T07:49:46;17.80;99.90
47765;DHT22;33529;49.242;8.670;2023-09-19T07:52:15;17.80;99.90
47765;DHT22;33529;49.242;8.670;2023-09-19T07:54:42;18.00;99.90
47765;DHT22;33529;49.242;8.670;2023-09-19T07:57:10;18.10;99.90
47765;DHT22;33529;49.242;8.670;2023-09-19T07:59:38;18.20;99.90
47765;DHT22;33529;49.242;8.670;2023-09-19T08:02:05;18.20;99.90
47765;DHT22;33529;49.242;8.670;2023-09-19T08:04:35;18.20;99.90
47765;DHT22;33529;49.242;8.670;2023-09-19T08:07:02;18.40;99.90
47765;DHT22;33529;49.242;8.670;2023-09-19T08:09:31;18.30;99.90
47765;DHT22;33529;49.242;8.670;2023-09-19T08:12:00;18.40;99.90
47765;DHT22;33529;49.242;8.670;2023-09-19T08:14:32;18.20;99.90
47765;DHT22;33529;49.242;8.670;2023-09-19T08:16:59;18.30;99.90
47765;DHT22;33529;49.242;8.670;2023-09-19T08:19:27;18.30;99.90
47765;DHT22;33529;49.242;8.670;2023-09-19T08:21:58;18.30;99.90
47765;DHT22;33529;49.242;8.670;2023-09-19T08:24:26;18.40;99.90
47765;DHT22;33529;49.242;8.670;2023-09-19T08:26:56;18.40;99.90
47765;DHT22;33529;49.242;8.670;2023-09-19T08:29:24;18.40;99.90
47765;DHT22;33529;49.242;8.670;2023-09-19T08:31:55;18.60;99.90
47765;DHT22;33529;49.242;8.670;2023-09-19T08:34:25;18.70;99.90
47765;DHT22;33529;49.242;8.670;2023-09-19T08:36:53;18.90;99.90
47765;DHT22;33529;49.242;8.670;2023-09-19T08:39:23;19.00;99.90
47765;DHT22;33529;49.242;8.670;2023-09-19T08:42:00;19.00;99.90
47765;DHT22;33529;49.242;8.670;2023-09-19T08:44:28;19.00;99.90
47765;DHT22;33529;49.242;8.670;2023-09-19T08:47:10;19.00;99.90
47765;DHT22;33529;49.242;8.670;2023-09-19T08:52:28;19.00;99.90
47765;DHT22;33529;49.242;8.670;2023-09-19T08:55:01;19.00;99.90
47765;DHT22;33529;49.242;8.670;2023-09-19T08:57:33;19.10;99.90
47765;DHT22;33529;49.242;8.670;2023-09-19T09:00:04;19.40;99.90
47765;DHT22;33529;49.242;8.670;2023-09-19T09:02:39;19.30;99.90
47765;DHT22;33529;49.242;8.670;2023-09-19T09:05:11;19.20;99.90
47765;DHT22;33529;49.242;8.670;2023-09-19T09:07:40;19.20;99.90
47765;DHT22;33529;49.242;8.670;2023-09-19T09:10:07;19.30;99.90
47765;DHT22;33529;49.242;8.670;2023-09-19T09:12:37;19.30;99.90
47765;DHT22;33529;49.242;8.670;2023-09-19T09:15:06;19.40;99.90
47765;DHT22;33529;49.242;8.670;2023-09-19T09:17:35;19.60;99.90
47765;DHT22;33529;49.242;8.670;2023-09-19T09:20:02;19.60;99.90
47765;DHT22;33529;49.242;8.670;2023-09-19T09:22:32;19.60;99.90
47765;DHT22;33529;49.242;8.670;2023-09-19T09:24:59;19.70;99.90
47765;DHT22;33529;49.242;8.670;2023-09-19T09:27:31;19.90;99.90
47765;DHT22;33529;49.242;8.670;2023-09-19T09:30:01;19.80;99.90
47765;DHT22;33529;49.242;8.670;2023-09-19T09:32:29;19.60;99.90
47765;DHT22;33529;49.242;8.670;2023-09-19T09:35:01;19.40;99.90
47765;DHT22;33529;49.242;8.670;2023-09-19T09:37:28;19.20;99.90
47765;DHT22;33529;49.242;8.670;2023-09-19T09:40:02;19.10;99.90
47765;DHT22;33529;49.242;8.670;2023-09-19T09:42:46;18.90;99.90
47765;DHT22;33529;49.242;8.670;2023-09-19T09:45:23;18.80;99.90
47765;DHT22;33529;49.242;8.670;2023-09-19T09:48:00;18.80;99.90
47765;DHT22;33529;49.242;8.670;2023-09-19T09:50:33;18.80;99.90
47765;DHT22;33529;49.242;8.670;2023-09-19T09:53:29;18.80;99.90
47765;DHT22;33529;49.242;8.670;2023-09-19T09:56:08;19.00;99.90
47765;DHT22;33529;49.242;8.670;2023-09-19T09:58:51;19.40;99.90
47765;DHT22;33529;49.242;8.670;2023-09-19T10:01:21;19.60;99.90
47765;DHT22;33529;49.242;8.670;2023-09-19T10:03:59;19.80;99.90
47765;DHT22;33529;49.242;8.670;2023-09-19T10:06:40;19.90;99.90
47765;DHT22;33529;49.242;8.670;2023-09-19T10:09:17;20.00;99.90
47765;DHT22;33529;49.242;8.670;2023-09-19T10:11:48;20.10;99.90
47765;DHT22;33529;49.242;8.670;2023-09-19T10:14:27;20.20;99.90
47765;DHT22;33529;49.242;8.670;2023-09-19T10:16:59;20.20;99.90
47765;DHT22;33529;49.242;8.670;2023-09-19T10:19:37;20.30;99.90
47765;DHT22;33529;49.242;8.670;2023-09-19T10:22:11;20.10;99.90
47765;DHT22;33529;49.242;8.670;2023-09-19T10:24:41;19.90;99.90
47765;DHT22;33529;49.242;8.670;2023-09-19T10:27:29;19.90;99.90
47765;DHT22;33529;49.242;8.670;2023-09-19T10:30:05;20.00;99.90
47765;DHT22;33529;49.242;8.670;2023-09-19T10:32:35;20.00;99.90
47765;DHT22;33529;49.242;8.670;2023-09-19T10:35:05;20.10;99.90
47765;DHT22;33529;49.242;8.670;2023-09-19T10:37:34;20.00;99.90
47765;DHT22;33529;49.242;8.670;2023-09-19T10:40:06;20.00;99.90
47765;DHT22;33529;49.242;8.670;2023-09-19T10:42:38;19.90;99.90
47765;DHT22;33529;49.242;8.670;2023-09-19T10:45:07;19.90;99.90
47765;DHT22;33529;49.242;8.670;2023-09-19T10:47:39;19.90;99.90
47765;DHT22;33529;49.242;8.670;2023-09-19T10:50:07;20.10;99.90
47765;DHT22;33529;49.242;8.670;2023-09-19T10:52:40;20.30;99.90
47765;DHT22;33529;49.242;8.670;2023-09-19T10:55:09;20.30;99.90
47765;DHT22;33529;49.242;8.670;2023-09-19T10:57:44;20.20;99.90
47765;DHT22;33529;49.242;8.670;2023-09-19T11:00:13;20.30;99.90
47765;DHT22;33529;49.242;8.670;2023-09-19T11:05:36;20.60;99.90
47765;DHT22;33529;49.242;8.670;2023-09-19T11:08:08;20.40;99.90
47765;DHT22;33529;49.242;8.670;2023-09-19T11:10:51;20.30;99.90
47765;DHT22;33529;49.242;8.670;2023-09-19T11:26:44;21.30;99.90
47765;DHT22;33529;49.242;8.670;2023-09-19T11:29:28;21.60;99.90
47765;DHT22;33529;49.242;8.670;2023-09-19T11:31:56;21.60;99.90
47765;DHT22;33529;49.242;8.670;2023-09-19T11:39:38;21.60;99.90
47765;DHT22;33529;49.242;8.670;2023-09-19T11:48:24;21.30;99.90
47765;DHT22;33529;49.242;8.670;2023-09-19T11:50:53;21.40;99.90
47765;DHT22;33529;49.242;8.670;2023-09-19T11:53:21;21.40;99.90
47765;DHT22;33529;49.242;8.670;2023-09-19T11:55:49;21.20;99.90
47765;DHT22;33529;49.242;8.670;2023-09-19T11:58:17;21.20;99.90
47765;DHT22;33529;49.242;8.670;2023-09-19T12:00:54;21.20;99.90
47765;DHT22;33529;49.242;8.670;2023-09-19T12:03:29;21.20;99.90
47765;DHT22;33529;49.242;8.670;2023-09-19T12:05:58;21.10;99.90
47765;DHT22;33529;49.242;8.670;2023-09-19T12:08:25;21.10;99.90
47765;DHT22;33529;49.242;8.670;2023-09-19T12:10:53;21.00;99.90
47765;DHT22;33529;49.242;8.670;2023-09-19T12:13:21;21.10;99.90
47765;DHT22;33529;49.242;8.670;2023-09-19T12:15:49;21.10;99.90
47765;DHT22;33529;49.242;8.670;2023-09-19T12:18:28;21.10;99.90
47765;DHT22;33529;49.242;8.670;2023-09-19T12:20:56;21.30;99.90
47765;DHT22;33529;49.242;8.670;2023-09-19T12:23:24;21.40;98.80
47765;DHT22;33529;49.242;8.670;2023-09-19T12:25:53;21.30;99.90
47765;DHT22;33529;49.242;8.670;2023-09-19T12:28:26;21.40;99.70
47765;DHT22;33529;49.242;8.670;2023-09-19T12:30:53;21.40;99.20
47765;DHT22;33529;49.242;8.670;2023-09-19T12:33:24;21.40;99.50
47765;DHT22;33529;49.242;8.670;2023-09-19T12:35:54;21.50;98.80
47765;DHT22;33529;49.242;8.670;2023-09-19T12:38:28;21.30;99.90
47765;DHT22;33529;49.242;8.670;2023-09-19T12:40:56;21.30;99.30
47765;DHT22;33529;49.242;8.670;2023-09-19T12:43:26;21.50;99.50
47765;DHT22;33529;49.242;8.670;2023-09-19T12:45:53;21.60;99.90
47765;DHT22;33529;49.242;8.670;2023-09-19T12:48:24;21.80;98.90
47765;DHT22;33529;49.242;8.670;2023-09-19T12:51:09;21.90;98.50
47765;DHT22;33529;49.242;8.670;2023-09-19T12:53:43;21.90;99.90
47765;DHT22;33529;49.242;8.670;2023-09-19T12:56:16;22.00;99.40
47765;DHT22;33529;49.242;8.670;2023-09-19T12:58:57;22.10;97.60
47765;DHT22;33529;49.242;8.670;2023-09-19T13:01:27;22.00;97.60
47765;DHT22;33529;49.242;8.670;2023-09-19T13:04:21;22.10;99.00
47765;DHT22;33529;49.242;8.670;2023-09-19T13:06:56;22.20;97.80
47765;DHT22;33529;49.242;8.670;2023-09-19T13:09:28;22.20;98.00
47765;DHT22;33529;49.242;8.670;2023-09-19T13:12:01;22.30;97.40
47765;DHT22;33529;49.242;8.670;2023-09-19T13:14:32;22.30;96.10
47765;DHT22;33529;49.242;8.670;2023-09-19T13:17:08;22.30;96.60
47765;DHT22;33529;49.242;8.670;2023-09-19T13:25:21;22.00;97.60
47765;DHT22;33529;49.242;8.670;2023-09-19T13:27:50;21.90;97.50
47765;DHT22;33529;49.242;8.670;2023-09-19T13:30:28;22.00;96.60
47765;DHT22;33529;49.242;8.670;2023-09-19T13:33:09;21.90;97.10
47765;DHT22;33529;49.242;8.670;2023-09-19T13:35:38;21.90;97.50
47765;DHT22;33529;49.242;8.670;2023-09-19T13:38:07;22.10;96.60
47765;DHT22;33529;49.242;8.670;2023-09-19T13:40:38;22.30;97.80
47765;DHT22;33529;49.242;8.670;2023-09-19T13:43:08;22.20;95.20
47765;DHT22;33529;49.242;8.670;2023-09-19T13:45:35;22.40;96.20
47765;DHT22;33529;49.242;8.670;2023-09-19T13:48:03;22.40;96.50
47765;DHT22;33529;49.242;8.670;2023-09-19T13:50:30;22.60;95.70
47765;DHT22;33529;49.242;8.670;2023-09-19T13:52:58;22.80;94.90
47765;DHT22;33529;49.242;8.670;2023-09-19T13:55:27;23.00;94.70
47765;DHT22;33529;49.242;8.670;2023-09-19T13:57:54;23.00;95.10
47765;DHT22;33529;49.242;8.670;2023-09-19T14:00:22;23.00;95.70
47765;DHT22;33529;49.242;8.670;2023-09-19T14:02:49;22.90;94.40
47765;DHT22;33529;49.242;8.670;2023-09-19T14:05:18;22.80;94.20
47765;DHT22;33529;49.242;8.670;2023-09-19T14:07:46;22.70;94.80
47765;DHT22;33529;49.242;8.670;2023-09-19T14:10:13;22.60;95.60
47765;DHT22;33529;49.242;8.670;2023-09-19T14:12:40;22.50;95.80
47765;DHT22;33529;49.242;8.670;2023-09-19T14:15:08;22.50;95.90
47765;DHT22;33529;49.242;8.670;2023-09-19T14:17:35;22.60;96.40
47765;DHT22;33529;49.242;8.670;2023-09-19T14:20:02;22.50;96.50
47765;DHT22;33529;49.242;8.670;2023-09-19T14:22:31;22.50;96.30
47765;DHT22;33529;49.242;8.670;2023-09-19T14:24:58;22.50;98.40
47765;DHT22;33529;49.242;8.670;2023-09-19T14:27:26;22.60;97.90
47765;DHT22;33529;49.242;8.670;2023-09-19T14:29:53;22.60;97.50
47765;DHT22;33529;49.242;8.670;2023-09-19T14:32:19;22.70;96.80
47765;DHT22;33529;49.242;8.670;2023-09-19T14:34:46;22.80;96.10
47765;DHT22;33529;49.242;8.670;2023-09-19T14:37:13;22.60;96.20
47765;DHT22;33529;49.242;8.670;2023-09-19T14:39:41;22.30;96.60
47765;DHT22;33529;49.242;8.670;2023-09-19T14:42:11;22.20;96.70
47765;DHT22;33529;49.242;8.670;2023-09-19T14:44:39;22.10;96.90
47765;DHT22;33529;49.242;8.670;2023-09-19T14:47:06;22.20;97.70
47765;DHT22;33529;49.242;8.670;2023-09-19T14:49:34;22.20;97.90
47765;DHT22;33529;49.242;8.670;2023-09-19T14:52:01;22.30;98.00
47765;DHT22;33529;49.242;8.670;2023-09-19T14:54:30;22.30;98.60
47765;DHT22;33529;49.242;8.670;2023-09-19T14:56:57;22.30;97.90
47765;DHT22;33529;49.242;8.670;2023-09-19T14:59:31;22.40;99.70
47765;DHT22;33529;49.242;8.670;2023-09-19T15:01:58;22.50;98.00
47765;DHT22;33529;49.242;8.670;2023-09-19T15:04:27;22.60;99.40
47765;DHT22;33529;49.242;8.670;2023-09-19T15:06:54;22.60;97.50
47765;DHT22;33529;49.242;8.670;2023-09-19T15:09:23;22.70;97.80
47765;DHT22;33529;49.242;8.670;2023-09-19T15:11:53;22.90;98.70
47765;DHT22;33529;49.242;8.670;2023-09-19T15:14:21;22.90;97.50
47765;DHT22;33529;49.242;8.670;2023-09-19T15:16:48;22.90;97.50
47765;DHT22;33529;49.242;8.670;2023-09-19T15:19:15;22.90;98.00
47765;DHT22;33529;49.242;8.670;2023-09-19T15:21:44;22.90;98.80
47765;DHT22;33529;49.242;8.670;2023-09-19T15:24:12;22.80;96.90
47765;DHT22;33529;49.242;8.670;2023-09-19T15:26:39;22.80;97.70
47765;DHT22;33529;49.242;8.670;2023-09-19T15:29:07;22.60;97.80
47765;DHT22;33529;49.242;8.670;2023-09-19T15:31:34;22.70;98.30
47765;DHT22;33529;49.242;8.670;2023-09-19T15:34:04;22.70;98.10
47765;DHT22;33529;49.242;8.670;2023-09-19T15:36:31;22.60;98.30
47765;DHT22;33529;49.242;8.670;2023-09-19T15:39:05;22.60;97.40
47765;DHT22;33529;49.242;8.670;2023-09-19T15:41:40;22.50;98.00
47765;DHT22;33529;49.242;8.670;2023-09-19T15:44:13;22.40;97.50
47765;DHT22;33529;49.242;8.670;2023-09-19T15:46:41;22.40;97.80
47765;DHT22;33529;49.242;8.670;2023-09-19T15:49:08;22.40;99.40
47765;DHT22;33529;49.242;8.670;2023-09-19T15:51:35;22.50;98.50
47765;DHT22;33529;49.242;8.670;2023-09-19T15:54:13;22.40;97.90
47765;DHT22;33529;49.242;8.670;2023-09-19T15:56:44;22.40;98.30
47765;DHT22;33529;49.242;8.670;2023-09-19T15:59:12;22.30;98.40
47765;DHT22;33529;49.242;8.670;2023-09-19T16:01:40;22.30;98.10
47765;DHT22;33529;49.242;8.670;2023-09-19T16:04:08;22.30;98.70
47765;DHT22;33529;49.242;8.670;2023-09-19T16:06:36;22.20;99.10
47765;DHT22;33529;49.242;8.670;2023-09-19T16:09:05;22.30;98.70
47765;DHT22;33529;49.242;8.670;2023-09-19T16:11:33;22.20;99.10
47765;DHT22;33529;49.242;8.670;2023-09-19T16:14:02;22.20;98.60
47765;DHT22;33529;49.242;8.670;2023-09-19T16:16:29;22.20;99.00
47765;DHT22;33529;49.242;8.670;2023-09-19T16:18:59;22.20;99.90
47765;DHT22;33529;49.242;8.670;2023-09-19T16:21:30;22.10;99.30
47765;DHT22;33529;49.242;8.670;2023-09-19T16:23:59;22.00;99.20
47765;DHT22;33529;49.242;8.670;2023-09-19T16:26:27;22.00;99.80
47765;DHT22;33529;49.242;8.670;2023-09-19T16:28:57;22.20;99.90
47765;DHT22;33529;49.242;8.670;2023-09-19T16:31:31;22.10;99.90
47765;DHT22;33529;49.242;8.670;2023-09-19T16:33:59;22.10;99.90